Time;durP1;ratioP1;P1;durP2;ratioP2;P2;SDS_P1;SDS_P2;PMS_P1;PMS_P2;Temp;Humidity;BMP_temperature;BMP_pressure;BME280_temperature;BME280_humidity;BME280_pressure;Samples;Min_cycle;Max_cycle;Signal;HPM_P1;HPM_P2
2022/07/09 00:02:23;;;;;;;2.88;1.20;;;;;;;18.82;42.63;96905.25;10336419;28;96952;-69
2022/07/09 00:07:26;;;;;;;2.78;1.40;;;;;;;18.76;42.86;96908.63;10338479;28;98639;-70
2022/07/09 00:12:29;;;;;;;3.13;1.20;;;;;;;18.73;41.82;96905.53;10336415;28;98875;-70
2022/07/09 00:17:34;;;;;;;4.05;1.25;;;;;;;18.67;42.28;96899.13;10335941;28;97013;-69
2022/07/09 00:22:36;;;;;;;3.50;1.40;;;;;;;18.54;41.97;96891.00;10337732;28;96783;-69
2022/07/09 00:27:39;;;;;;;2.75;1.13;;;;;;;18.54;41.83;96893.66;10338087;28;96732;-69
2022/07/09 00:32:44;;;;;;;3.35;1.38;;;;;;;18.55;41.76;96890.84;10332394;28;98845;-69
2022/07/09 00:37:46;;;;;;;2.38;1.20;;;;;;;18.52;41.94;96901.78;10337134;28;98496;-70
2022/07/09 00:42:49;;;;;;;3.85;1.27;;;;;;;18.47;41.53;96899.66;10333002;28;97394;-70
2022/07/09 00:47:54;;;;;;;2.28;1.33;;;;;;;18.35;41.54;96895.00;10334362;28;97029;-69
2022/07/09 00:52:56;;;;;;;1.63;1.10;;;;;;;18.22;41.91;96895.63;10337281;28;96794;-69
2022/07/09 00:58:00;;;;;;;3.28;1.02;;;;;;;18.13;42.58;96887.78;10334965;28;97236;-70
2022/07/09 01:03:04;;;;;;;2.83;1.13;;;;;;;18.00;42.73;96892.84;10329324;28;96873;-70
2022/07/09 01:08:09;;;;;;;1.35;1.10;;;;;;;17.87;43.34;96888.16;10332232;28;98550;-69
2022/07/09 01:13:11;;;;;;;3.15;1.30;;;;;;;17.81;43.20;96883.56;10333062;28;98095;-70
2022/07/09 01:18:16;;;;;;;2.75;1.40;;;;;;;17.59;43.58;96879.09;10334021;28;97803;-70
2022/07/09 01:23:20;;;;;;;4.07;1.88;;;;;;;17.29;43.99;96889.53;10331276;28;96795;-69
2022/07/09 01:28:23;;;;;;;2.92;1.30;;;;;;;17.02;44.52;96888.16;10335005;28;97414;-69
2022/07/09 01:33:26;;;;;;;3.78;1.20;;;;;;;16.77;45.50;96875.09;10334320;28;98356;-69
2022/07/09 01:38:30;;;;;;;3.33;1.48;;;;;;;16.62;45.83;96883.69;10330742;28;97004;-69
2022/07/09 01:43:34;;;;;;;2.67;1.30;;;;;;;16.52;46.50;96884.84;10334840;28;97408;-69
2022/07/09 01:48:38;;;;;;;3.05;1.27;;;;;;;16.40;46.42;96876.50;10334497;28;96951;-69
2022/07/09 01:53:42;;;;;;;3.70;1.53;;;;;;;16.17;48.03;96877.19;10335004;28;98039;-69
2022/07/09 01:58:45;;;;;;;3.05;1.48;;;;;;;15.99;47.77;96876.56;10332741;28;97168;-69
2022/07/09 02:03:48;;;;;;;3.83;1.38;;;;;;;15.80;48.30;96875.88;10333630;28;99659;-69
2022/07/09 02:08:53;;;;;;;3.42;1.30;;;;;;;15.67;48.73;96875.59;10334854;28;97396;-69
2022/07/09 02:13:56;;;;;;;3.13;1.20;;;;;;;15.61;49.01;96878.84;10333158;28;99061;-69
2022/07/09 02:18:59;;;;;;;1.98;1.20;;;;;;;15.45;49.03;96874.38;10329019;28;99128;-69
2022/07/09 02:24:03;;;;;;;2.67;1.65;;;;;;;15.09;50.76;96885.97;10331739;28;97329;-69
2022/07/09 02:29:06;;;;;;;2.08;1.20;;;;;;;14.85;50.56;96884.09;10337240;28;96834;-69
2022/07/09 02:34:09;;;;;;;2.70;1.60;;;;;;;14.91;51.18;96890.53;10333839;28;96791;-69
2022/07/09 02:39:13;;;;;;;3.13;1.50;;;;;;;14.91;50.85;96888.72;10332150;28;97013;-69
2022/07/09 02:44:16;;;;;;;4.00;1.57;;;;;;;14.82;51.35;96891.44;10335443;28;97582;-69
2022/07/09 02:49:21;;;;;;;2.22;1.33;;;;;;;14.62;52.10;96899.59;10330794;28;99440;-69
2022/07/09 02:54:25;;;;;;;3.67;1.50;;;;;;;14.49;52.31;96899.22;10332052;28;97466;-69
2022/07/09 02:59:28;;;;;;;4.47;1.50;;;;;;;14.36;53.53;96894.34;10330937;28;98436;-69
2022/07/09 03:04:31;;;;;;;5.72;1.65;;;;;;;14.37;52.82;96896.84;10333657;28;96894;-69
2022/07/09 03:09:35;;;;;;;3.58;1.50;;;;;;;14.30;53.64;96901.03;10330951;28;97406;-68
2022/07/09 03:14:38;;;;;;;3.70;1.40;;;;;;;14.20;53.52;96902.94;10333118;28;96858;-69
2022/07/09 03:19:41;;;;;;;2.85;1.50;;;;;;;14.13;53.54;96899.28;10328178;28;97051;-69
2022/07/09 03:24:45;;;;;;;3.58;1.40;;;;;;;14.02;53.93;96907.38;10333283;28;96924;-68
2022/07/09 03:29:48;;;;;;;1.67;1.40;;;;;;;14.07;53.68;96915.63;10330067;28;97774;-68
2022/07/09 03:34:52;;;;;;;2.35;1.52;;;;;;;14.00;53.66;96918.91;10332021;28;96879;-68
2022/07/09 03:39:56;;;;;;;2.53;1.33;;;;;;;13.83;54.17;96917.13;10329592;28;96762;-68
2022/07/09 03:44:59;;;;;;;2.47;1.40;;;;;;;13.71;54.68;96921.75;10331141;28;96915;-69
2022/07/09 03:50:02;;;;;;;3.50;1.40;;;;;;;13.57;55.24;96917.88;10327439;28;97819;-69
2022/07/09 03:55:07;;;;;;;2.28;1.48;;;;;;;13.54;55.14;96931.28;10330944;28;96842;-68
2022/07/09 04:00:10;;;;;;;;;;;;;;;13.41;54.64;96925.56;10333893;28;98821;-68
2022/07/09 04:05:13;;;;;;;2.13;1.50;;;;;;;13.30;55.36;96923.16;10326727;28;97073;-68
2022/07/09 04:10:17;;;;;;;2.50;1.60;;;;;;;13.32;55.66;96923.84;10329762;28;96748;-68
2022/07/09 04:15:20;;;;;;;3.73;1.80;;;;;;;13.35;56.00;96929.63;10329230;28;99952;-68
2022/07/09 04:20:25;;;;;;;4.40;1.55;;;;;;;13.30;56.22;96933.66;10329553;28;97057;-68
2022/07/09 04:25:29;;;;;;;3.63;1.30;;;;;;;13.28;56.77;96933.00;10332367;28;97726;-68
2022/07/09 04:30:32;;;;;;;4.70;1.60;;;;;;;13.32;56.60;96936.97;10319024;28;98815;-69
2022/07/09 04:35:36;;;;;;;3.80;1.98;;;;;;;13.47;56.67;96940.72;10330677;28;96867;-68
2022/07/09 04:40:40;;;;;;;3.88;1.92;;;;;;;13.53;57.15;96947.19;10335393;28;96814;-68
2022/07/09 04:45:43;;;;;;;3.87;1.40;;;;;;;13.66;57.01;96945.03;10334577;28;96986;-68
2022/07/09 04:50:46;;;;;;;4.95;1.60;;;;;;;13.75;56.72;96940.66;10335412;28;98565;-68
2022/07/09 04:55:50;;;;;;;2.58;1.30;;;;;;;13.75;56.41;96940.66;10335695;28;97965;-68
2022/07/09 05:00:53;;;;;;;3.67;1.93;;;;;;;13.76;55.75;96940.53;10334006;28;97065;-68
2022/07/09 05:05:56;;;;;;;3.25;1.80;;;;;;;13.81;56.66;96940.06;10333850;28;96818;-68
2022/07/09 05:11:00;;;;;;;3.42;1.80;;;;;;;13.93;57.26;96943.28;10336329;28;96856;-69
2022/07/09 05:16:04;;;;;;;4.77;1.70;;;;;;;14.06;57.19;96945.53;10332482;28;96907;-68
2022/07/09 05:21:07;;;;;;;3.95;1.90;;;;;;;14.21;57.59;96943.16;10328324;28;97627;-68
2022/07/09 05:26:12;;;;;;;2.67;1.67;;;;;;;14.33;57.35;96934.09;10333088;28;97691;-68
2022/07/09 05:31:14;;;;;;;;;;;;;;;14.49;56.01;96930.75;10333427;28;96948;-68
2022/07/09 05:36:36;;;;;;;2.85;1.50;;;;;;;14.67;55.83;96935.94;10332313;28;98521;-68
2022/07/09 05:41:40;;;;;;;4.57;1.90;;;;;;;14.95;57.66;96941.81;10335317;28;97612;-68
2022/07/09 05:46:43;;;;;;;4.70;1.90;;;;;;;15.27;57.26;96948.22;10334611;28;97759;-68
2022/07/09 05:51:46;;;;;;;4.25;2.15;;;;;;;15.59;57.32;96939.59;10334629;28;97909;-69
2022/07/09 05:56:51;;;;;;;4.93;1.80;;;;;;;15.89;57.51;96945.22;10333747;28;96775;-71
2022/07/09 06:01:53;;;;;;;3.47;1.88;;;;;;;16.13;57.61;96947.03;10335435;28;96965;-68
2022/07/09 06:06:56;;;;;;;3.80;1.98;;;;;;;16.35;57.43;96955.28;10335843;28;99826;-68
2022/07/09 06:12:01;;;;;;;3.65;1.45;;;;;;;16.53;57.13;96947.97;10336188;28;97400;-69
2022/07/09 06:17:06;;;;;;;5.22;1.80;;;;;;;16.61;56.80;96940.06;10332069;28;96923;-69
2022/07/09 06:22:09;;;;;;;3.50;1.63;;;;;;;16.75;57.07;96950.94;10334540;28;99693;-69
2022/07/09 06:27:14;;;;;;;3.58;1.77;;;;;;;16.87;56.70;96949.59;10333476;28;97593;-68
2022/07/09 06:32:17;;;;;;;3.55;1.63;;;;;;;16.92;56.89;96947.28;10331535;28;98478;-69
2022/07/09 06:37:20;;;;;;;5.80;1.83;;;;;;;17.04;56.54;96944.25;10335546;28;96907;-69
2022/07/09 06:42:24;;;;;;;5.00;1.77;;;;;;;17.13;56.29;96937.97;10332135;28;98655;-69
2022/07/09 06:47:27;;;;;;;4.97;1.90;;;;;;;17.28;56.04;96941.50;10332883;28;97542;-69
2022/07/09 06:52:30;;;;;;;4.05;1.70;;;;;;;17.45;55.82;96934.31;10329275;28;96941;-69
2022/07/09 06:57:34;;;;;;;6.80;2.40;;;;;;;17.65;55.77;96939.97;10332190;28;97740;-69
2022/07/09 07:02:37;;;;;;;;;;;;;;;17.81;54.86;96940.88;10332480;28;99351;-69
2022/07/09 07:07:40;;;;;;;2.95;1.67;;;;;;;17.91;55.01;96941.50;10333044;28;97084;-69
2022/07/09 07:12:44;;;;;;;2.92;1.60;;;;;;;18.08;54.41;96932.44;10330379;28;97901;-68
2022/07/09 07:17:48;;;;;;;4.43;1.90;;;;;;;18.25;53.70;96927.00;10329258;28;97981;-69
2022/07/09 07:22:57;;;;;;;5.45;1.80;;;;;;;18.37;53.32;96924.75;10332230;28;97821;-69
2022/07/09 07:28:03;;;;;;;6.20;1.73;;;;;;;18.46;52.87;96913.91;10327822;28;99775;-69
2022/07/09 07:33:06;;;;;;;3.70;1.75;;;;;;;18.73;52.81;96924.88;10324957;28;98130;-69
2022/07/09 07:38:09;;;;;;;4.15;1.58;;;;;;;18.97;52.29;96925.63;10333670;28;97367;-69
2022/07/09 07:43:13;;;;;;;2.90;1.50;;;;;;;19.12;51.21;96918.47;10331981;28;97414;-69
2022/07/09 07:48:18;;;;;;;2.22;1.35;;;;;;;19.40;51.17;96915.97;10333501;28;96816;-69
2022/07/09 07:53:21;;;;;;;;;;;;;;;19.74;51.20;96895.09;10329137;28;99810;-69
2022/07/09 07:58:25;;;;;;;4.80;1.50;;;;;;;19.90;49.84;96902.81;10334661;28;96795;-69
2022/07/09 08:03:28;;;;;;;2.17;1.30;;;;;;;20.10;49.33;96900.34;10321974;28;96762;-69
2022/07/09 08:08:35;;;;;;;2.50;1.42;;;;;;;20.28;49.10;96907.84;10331726;28;96931;-69
2022/07/09 08:13:40;;;;;;;3.70;1.40;;;;;;;20.34;48.73;96901.75;10336088;28;96903;-69
2022/07/09 08:18:43;;;;;;;3.22;1.40;;;;;;;20.50;47.86;96892.69;10341480;28;97267;-69
2022/07/09 08:23:53;;;;;;;4.50;1.90;;;;;;;20.82;47.31;96892.28;10332583;28;97352;-69
2022/07/09 08:28:57;;;;;;;3.70;1.55;;;;;;;21.01;46.50;96893.41;10338246;28;96843;-69
2022/07/09 08:34:00;;;;;;;;;;;;;;;21.16;46.24;96896.72;10337674;28;97000;-70
2022/07/09 08:39:03;;;;;;;3.17;1.40;;;;;;;21.31;45.80;96880.63;10338666;28;97391;-69
2022/07/09 08:44:11;;;;;;;4.25;1.15;;;;;;;21.53;45.01;96883.16;10335826;28;97625;-69
2022/07/09 08:49:16;;;;;;;3.08;1.52;;;;;;;21.71;44.45;96879.94;10339881;28;98177;-69
2022/07/09 08:54:21;;;;;;;2.78;1.27;;;;;;;21.94;44.66;96875.06;10337421;28;96964;-69
2022/07/09 08:59:26;;;;;;;4.78;1.40;;;;;;;21.90;44.03;96873.00;10337250;28;96890;-69
2022/07/09 09:04:28;;;;;;;;;;;;;;;21.90;44.38;96870.34;10336159;28;96972;-69
2022/07/09 09:09:36;;;;;;;3.35;1.17;;;;;;;21.83;44.46;96865.84;10334607;28;96830;-69
2022/07/09 09:14:40;;;;;;;4.53;1.58;;;;;;;22.34;43.37;96863.56;10335384;28;97273;-69
2022/07/09 09:19:43;;;;;;;2.75;1.10;;;;;;;22.83;42.13;96862.25;10335795;28;98764;-69
2022/07/09 09:24:51;;;;;;;2.95;1.13;;;;;;;23.07;40.78;96857.25;10331287;28;97060;-69
2022/07/09 09:29:58;;;;;;;3.20;1.30;;;;;;;23.52;40.24;96857.25;10336704;28;97582;-70
2022/07/09 09:35:04;;;;;;;3.83;1.55;;;;;;;23.68;40.10;96847.91;10334042;28;98638;-69
2022/07/09 09:40:11;;;;;;;2.47;1.10;;;;;;;23.46;39.72;96845.56;10338406;28;96878;-70
2022/07/09 09:45:16;;;;;;;2.35;1.20;;;;;;;23.37;39.98;96852.19;10338527;28;99110;-71
2022/07/09 09:50:21;;;;;;;3.90;1.55;;;;;;;23.57;39.66;96849.44;10337059;28;96881;-71
2022/07/09 09:55:26;;;;;;;5.88;1.55;;;;;;;23.85;39.45;96842.88;10341275;28;98676;-71
2022/07/09 10:00:31;;;;;;;2.47;1.10;;;;;;;24.03;39.11;96834.91;10337519;28;98485;-72
2022/07/09 10:05:34;;;;;;;3.55;1.20;;;;;;;24.37;38.24;96832.78;10338799;28;97033;-72
2022/07/09 10:10:37;;;;;;;3.05;1.10;;;;;;;24.66;37.65;96833.09;10338560;28;96802;-72
2022/07/09 10:15:50;;;;;;;2.53;1.27;;;;;;;24.78;37.64;96836.66;10338253;28;96825;-72
2022/07/09 10:20:57;;;;;;;5.15;1.50;;;;;;;24.60;36.43;96824.13;10338180;28;97094;-72
2022/07/09 10:26:00;;;;;;;2.95;1.17;;;;;;;24.67;36.40;96824.03;10337908;28;96743;-72
2022/07/09 10:31:09;;;;;;;4.80;1.10;;;;;;;25.00;35.95;96825.53;10336625;28;96889;-72
2022/07/09 10:36:16;;;;;;;5.43;1.60;;;;;;;25.51;35.67;96818.03;10331049;28;97580;-72
2022/07/09 10:41:22;;;;;;;3.05;1.02;;;;;;;25.71;35.23;96807.88;10331418;28;96982;-72
2022/07/09 10:46:27;;;;;;;3.25;1.40;;;;;;;25.88;35.25;96812.59;10327423;28;96802;-72
2022/07/09 10:51:30;;;;;;;4.03;1.48;;;;;;;25.99;35.10;96809.09;10337709;28;98002;-72
2022/07/09 10:56:37;;;;;;;3.90;1.37;;;;;;;26.10;34.84;96799.41;10329751;28;96847;-72
2022/07/09 11:01:41;;;;;;;5.38;1.40;;;;;;;26.36;34.38;96798.16;10323428;28;96701;-72
2022/07/09 11:06:47;;;;;;;4.93;1.60;;;;;;;26.53;34.21;96793.69;10336717;28;96772;-72
2022/07/09 11:11:51;;;;;;;2.25;1.30;;;;;;;26.55;34.24;96790.78;10337241;28;97005;-72
2022/07/09 11:16:58;;;;;;;2.90;1.13;;;;;;;26.65;34.04;96784.84;10336324;28;96964;-72
2022/07/09 11:22:02;;;;;;;2.25;1.05;;;;;;;26.75;33.83;96790.41;10335930;28;96828;-72
2022/07/09 11:27:06;;;;;;;2.03;0.90;;;;;;;27.02;34.15;96785.34;10335509;28;96764;-72
2022/07/09 11:32:16;;;;;;;2.20;1.25;;;;;;;27.01;33.58;96775.66;10336018;28;96838;-72
2022/07/09 11:37:24;;;;;;;5.07;1.30;;;;;;;27.03;33.76;96778.91;10336097;28;97129;-72
2022/07/09 11:42:27;;;;;;;4.40;1.23;;;;;;;27.06;33.65;96773.06;10336342;28;96915;-72
2022/07/09 11:47:35;;;;;;;6.13;1.87;;;;;;;27.05;33.47;96765.28;10336589;28;97235;-72
2022/07/09 11:52:45;;;;;;;2.88;0.98;;;;;;;27.16;33.03;96760.91;10342853;28;96911;-72
2022/07/09 11:57:55;;;;;;;2.95;1.20;;;;;;;27.28;33.07;96753.59;10342549;28;97146;-72
2022/07/09 12:03:04;;;;;;;2.00;1.07;;;;;;;27.59;32.70;96746.06;10343507;28;96707;-72
2022/07/09 12:08:08;;;;;;;2.38;1.00;;;;;;;27.83;32.42;96749.44;10342565;28;96770;-72
2022/07/09 12:13:11;;;;;;;3.92;1.30;;;;;;;28.30;32.22;96741.00;10342618;28;96893;-72
2022/07/09 12:18:16;;;;;;;2.83;1.07;;;;;;;28.39;31.72;96739.53;10341337;28;96865;-72
2022/07/09 12:23:19;;;;;;;3.78;1.00;;;;;;;28.50;31.38;96729.72;10342144;28;96676;-72
2022/07/09 12:28:22;;;;;;;4.00;1.17;;;;;;;28.55;31.54;96728.94;10341481;28;96874;-72
2022/07/09 12:33:26;;;;;;;4.82;1.45;;;;;;;28.61;31.22;96720.69;10333362;28;97039;-72
2022/07/09 12:38:29;;;;;;;2.70;1.10;;;;;;;28.54;31.29;96717.38;10338991;28;96838;-72
2022/07/09 12:43:32;;;;;;;2.97;1.30;;;;;;;28.64;31.16;96713.19;10341851;28;96821;-72
2022/07/09 12:48:36;;;;;;;1.92;1.15;;;;;;;28.75;30.67;96714.94;10340616;28;96995;-72
2022/07/09 12:53:40;;;;;;;2.22;1.08;;;;;;;28.38;31.07;96707.53;10327015;28;98033;-72
2022/07/09 12:58:42;;;;;;;4.43;1.17;;;;;;;28.68;30.90;96703.56;10334832;28;99401;-72
2022/07/09 13:03:47;;;;;;;4.03;1.42;;;;;;;28.99;30.37;96697.47;10335919;28;96877;-70
2022/07/09 13:09:11;;;;;;;3.63;1.13;;;;;;;29.12;30.13;96693.56;10336580;28;96880;-70
2022/07/09 13:14:14;;;;;;;4.65;1.20;;;;;;;29.26;30.19;96687.75;10332975;28;96784;-71
2022/07/09 13:19:18;;;;;;;3.03;1.10;;;;;;;29.22;30.24;96684.75;10328766;28;98500;-71
2022/07/09 13:24:21;;;;;;;4.97;1.63;;;;;;;28.86;30.69;96694.34;10327094;28;98825;-72
2022/07/09 13:29:24;;;;;;;1.73;0.95;;;;;;;28.74;31.04;96691.78;10329563;28;99351;-72
2022/07/09 13:34:28;;;;;;;4.50;1.00;;;;;;;28.52;31.04;96684.56;10326822;28;96938;-72
2022/07/09 13:39:31;;;;;;;2.38;1.15;;;;;;;27.96;31.61;96689.19;10328014;28;99282;-72
2022/07/09 13:44:34;;;;;;;1.83;0.87;;;;;;;27.86;31.62;96690.69;10334883;28;96817;-72
2022/07/09 13:49:39;;;;;;;1.92;1.13;;;;;;;28.34;32.09;96687.56;10334133;28;98393;-72
2022/07/09 13:54:41;;;;;;;2.58;1.20;;;;;;;28.62;30.84;96678.50;10329339;28;96935;-72
2022/07/09 13:59:44;;;;;;;2.22;1.20;;;;;;;28.82;30.45;96666.34;10336049;28;98196;-72
2022/07/09 14:04:49;;;;;;;1.88;1.02;;;;;;;28.85;30.59;96672.00;10333592;28;97450;-72
2022/07/09 14:09:52;;;;;;;1.35;0.90;;;;;;;28.95;30.67;96664.09;10334854;28;97724;-72
2022/07/09 14:14:55;;;;;;;3.33;1.15;;;;;;;28.83;30.96;96663.41;10331006;28;97772;-72
2022/07/09 14:19:59;;;;;;;1.50;1.10;;;;;;;28.83;31.26;96651.81;10327931;28;96867;-72
2022/07/09 14:25:02;;;;;;;3.78;1.48;;;;;;;29.01;31.41;96653.38;10336032;28;96708;-71
2022/07/09 14:30:06;;;;;;;4.75;1.20;;;;;;;29.28;30.79;96651.44;10337938;28;96985;-71
2022/07/09 14:35:11;;;;;;;1.58;1.00;;;;;;;29.63;31.70;96650.09;10329711;28;96823;-71
2022/07/09 14:40:14;;;;;;;2.45;1.10;;;;;;;30.16;30.33;96652.81;10328651;28;98818;-72
2022/07/09 14:45:17;;;;;;;1.80;1.27;;;;;;;30.75;30.00;96646.25;10325837;28;98690;-72
2022/07/09 14:50:21;;;;;;;;;;;;;;;30.74;30.39;96639.28;10334548;28;97690;-72
2022/07/09 14:55:24;;;;;;;2.50;1.00;;;;;;;30.37;29.94;96642.94;10325819;28;98288;-71
2022/07/09 15:00:27;;;;;;;4.35;1.63;;;;;;;29.77;30.34;96644.28;10325169;28;96855;-72
2022/07/09 15:05:31;;;;;;;2.80;1.30;;;;;;;29.21;30.76;96639.25;10337151;28;97359;-72
2022/07/09 15:10:34;;;;;;;3.33;1.60;;;;;;;28.98;31.21;96636.69;10336464;28;96730;-72
2022/07/09 15:15:37;;;;;;;4.97;1.40;;;;;;;28.97;30.86;96631.56;10336911;28;96730;-71
2022/07/09 15:20:42;;;;;;;2.95;1.10;;;;;;;29.82;31.37;96630.81;10336829;28;96863;-72
2022/07/09 15:25:45;;;;;;;2.65;1.23;;;;;;;31.40;29.45;96610.75;10336307;28;96817;-72
2022/07/09 15:30:48;;;;;;;4.50;1.15;;;;;;;33.15;27.46;96607.25;10335543;28;99657;-71
2022/07/09 15:35:53;;;;;;;1.77;0.90;;;;;;;33.91;26.72;96602.19;10335984;28;96831;-71
2022/07/09 15:40:56;;;;;;;1.95;0.95;;;;;;;34.37;26.18;96599.72;10335643;28;96767;-72
2022/07/09 15:45:59;;;;;;;1.67;0.88;;;;;;;34.96;25.09;96591.28;10333992;28;96836;-72
2022/07/09 15:51:03;;;;;;;3.22;0.90;;;;;;;34.95;25.07;96595.91;10319821;28;99357;-71
2022/07/09 15:56:06;;;;;;;3.22;1.33;;;;;;;35.47;24.65;96600.50;10334481;28;96738;-71
2022/07/09 16:01:10;;;;;;;2.58;1.10;;;;;;;34.66;25.27;96600.66;10335098;28;96979;-71
2022/07/09 16:06:14;;;;;;;1.45;1.05;;;;;;;33.14;26.61;96592.13;10335287;28;97238;-71
2022/07/09 16:16:37;;;;;;;2.53;1.35;;;;;;;35.50;24.82;96578.16;10332590;28;97413;-71
2022/07/09 16:21:42;;;;;;;2.00;1.15;;;;;;;37.74;22.65;96580.78;10334759;28;96833;-71
2022/07/09 16:26:45;;;;;;;3.20;1.02;;;;;;;38.63;21.88;96575.97;10334929;28;99534;-71
2022/07/09 16:31:48;;;;;;;2.28;0.93;;;;;;;40.01;20.63;96558.78;10334065;28;97930;-71
2022/07/09 16:36:52;;;;;;;2.55;0.98;;;;;;;40.83;19.73;96563.84;10338795;28;96868;-71
2022/07/09 16:41:55;;;;;;;2.95;1.00;;;;;;;40.59;20.46;96533.63;10341197;28;97090;-71
2022/07/09 16:47:04;;;;;;;3.20;1.10;;;;;;;40.72;20.08;96546.22;10341456;28;96803;-71
2022/07/09 16:52:09;;;;;;;1.83;1.13;;;;;;;39.95;20.56;96532.75;10341328;28;96769;-72
2022/07/09 16:57:11;;;;;;;1.42;0.90;;;;;;;39.71;20.73;96542.34;10341109;28;96898;-72
2022/07/09 17:02:17;;;;;;;3.35;0.80;;;;;;;38.57;22.12;96541.78;10340697;28;97643;-72
2022/07/09 17:07:22;;;;;;;3.80;1.42;;;;;;;38.52;21.86;96539.22;10341263;28;96726;-72
2022/07/09 17:12:25;;;;;;;3.05;0.90;;;;;;;38.82;21.59;96536.66;10335357;28;96785;-72
2022/07/09 17:17:28;;;;;;;3.92;1.42;;;;;;;38.65;21.70;96543.72;10334619;28;97781;-71
2022/07/09 17:22:32;;;;;;;2.72;1.30;;;;;;;38.80;21.42;96547.09;10331154;28;99263;-72
2022/07/09 17:27:35;;;;;;;2.55;1.30;;;;;;;39.19;21.12;96548.00;10332021;28;98610;-72
2022/07/09 17:32:38;;;;;;;1.92;1.00;;;;;;;39.22;20.86;96544.63;10330323;28;100326;-72
2022/07/09 17:37:42;;;;;;;2.15;1.05;;;;;;;38.00;22.47;96555.50;10333112;28;99023;-72
2022/07/09 17:42:45;;;;;;;1.20;0.73;;;;;;;38.23;20.01;96557.00;10334629;28;98113;-72
2022/07/09 17:47:48;;;;;;;1.80;1.00;;;;;;;37.67;21.17;96570.28;10336192;28;99839;-72
2022/07/09 17:52:52;;;;;;;2.22;1.00;;;;;;;37.83;19.73;96567.97;10338789;28;97310;-72
2022/07/09 17:57:57;;;;;;;1.55;1.00;;;;;;;37.80;19.87;96565.06;10335847;28;96777;-72
2022/07/09 18:03:01;;;;;;;4.13;1.00;;;;;;;37.76;19.53;96573.09;10329332;28;98688;-72
2022/07/09 18:08:05;;;;;;;1.95;0.80;;;;;;;37.84;19.01;96572.31;10329399;28;98804;-72
2022/07/09 18:13:08;;;;;;;1.55;1.00;;;;;;;37.04;19.81;96564.03;10334516;28;96804;-72
2022/07/09 18:18:11;;;;;;;1.25;0.70;;;;;;;34.95;21.55;96570.66;10338250;28;96930;-72
2022/07/09 18:23:19;;;;;;;2.10;0.85;;;;;;;32.75;23.17;96563.16;10338105;28;97511;-71
2022/07/09 18:28:22;;;;;;;3.70;1.08;;;;;;;31.10;25.35;96571.84;10338132;28;96898;-71
2022/07/09 18:33:25;;;;;;;2.97;1.10;;;;;;;29.82;27.15;96571.56;10344107;28;98635;-71
2022/07/09 18:38:29;;;;;;;2.17;1.00;;;;;;;28.68;28.64;96582.59;10341900;28;98027;-71
2022/07/09 18:43:32;;;;;;;3.55;1.65;;;;;;;27.95;29.40;96581.00;10341807;28;96874;-71
2022/07/09 18:48:35;;;;;;;3.60;1.20;;;;;;;27.47;30.37;96582.47;10337307;28;96964;-71
2022/07/09 18:53:39;;;;;;;3.85;2.47;;;;;;;27.04;31.73;96584.81;10334989;28;96760;-71
2022/07/09 18:58:42;;;;;;;4.53;2.20;;;;;;;26.56;32.55;96591.47;10336796;28;96787;-71
2022/07/09 19:03:45;;;;;;;2.70;2.20;;;;;;;26.18;33.45;96587.53;10336108;28;96807;-71
2022/07/09 19:08:50;;;;;;;3.13;1.50;;;;;;;26.02;34.14;96599.00;10339957;28;96925;-71
2022/07/09 19:13:53;;;;;;;2.13;1.20;;;;;;;25.84;34.51;96594.63;10338323;28;98848;-68
2022/07/09 19:18:56;;;;;;;4.20;1.50;;;;;;;25.61;34.28;96597.09;10336450;28;97023;-72
2022/07/09 19:24:00;;;;;;;2.25;1.30;;;;;;;25.29;34.99;96601.16;10335872;28;96964;-71
2022/07/09 19:29:03;;;;;;;3.92;1.27;;;;;;;25.02;35.38;96601.59;10335833;28;96972;-71
2022/07/09 19:34:07;;;;;;;2.20;1.10;;;;;;;24.73;35.85;96598.75;10335666;28;96929;-71
2022/07/09 19:39:11;;;;;;;2.83;1.25;;;;;;;24.41;37.19;96607.00;10336022;28;96817;-71
2022/07/09 19:44:14;;;;;;;2.80;1.80;;;;;;;24.17;37.64;96611.41;10337228;28;96910;-72
2022/07/09 19:49:17;;;;;;;2.58;1.20;;;;;;;23.96;38.11;96614.53;10335678;28;96944;-71
2022/07/09 19:54:21;;;;;;;2.88;1.30;;;;;;;23.75;38.36;96620.06;10344112;28;97184;-71
2022/07/09 19:59:25;;;;;;;3.22;1.25;;;;;;;23.58;38.67;96629.69;10331025;28;96834;-71
2022/07/09 20:04:28;;;;;;;5.13;1.80;;;;;;;23.37;38.25;96629.06;10335183;28;99282;-71
2022/07/09 20:09:32;;;;;;;2.65;1.20;;;;;;;23.26;37.92;96629.78;10337732;28;97821;-71
2022/07/09 20:14:35;;;;;;;2.25;1.20;;;;;;;23.18;37.70;96630.84;10342240;28;97357;-71
2022/07/09 20:19:38;;;;;;;2.22;0.82;;;;;;;23.05;37.77;96640.78;10341783;28;96826;-71
2022/07/09 20:24:42;;;;;;;3.00;1.25;;;;;;;22.87;38.02;96638.88;10341331;28;96935;-71
2022/07/09 20:29:44;;;;;;;;;;;;;;;22.74;37.83;96639.81;10341979;28;96834;-71
2022/07/09 20:34:47;;;;;;;2.45;1.30;;;;;;;22.62;38.26;96645.00;10340277;28;97352;-71
2022/07/09 20:39:52;;;;;;;2.70;1.10;;;;;;;22.50;38.47;96644.84;10341205;28;97191;-71
2022/07/09 20:44:55;;;;;;;2.22;1.23;;;;;;;22.40;38.38;96644.47;10340408;28;97204;-71
2022/07/09 20:49:58;;;;;;;1.67;1.05;;;;;;;22.30;38.38;96644.94;10340894;28;97165;-71
2022/07/09 20:55:02;;;;;;;4.43;1.50;;;;;;;22.20;39.14;96642.72;10337839;28;96868;-71
2022/07/09 21:00:10;;;;;;;2.92;1.30;;;;;;;22.10;39.10;96642.34;10340472;28;96830;-71
2022/07/09 21:05:13;;;;;;;2.03;1.10;;;;;;;22.00;39.14;96634.78;10340073;28;96779;-71
2022/07/09 21:10:17;;;;;;;2.25;1.30;;;;;;;21.90;39.73;96644.25;10340605;28;97115;-71
2022/07/09 21:15:20;;;;;;;;;;;;;;;21.80;39.32;96644.72;10340924;28;96739;-70
2022/07/09 21:20:23;;;;;;;4.15;2.45;;;;;;;21.60;40.37;96650.03;10340627;28;96808;-71
2022/07/09 21:25:27;;;;;;;1.55;1.05;;;;;;;21.49;40.77;96654.94;10340199;28;96752;-71
2022/07/09 21:30:30;;;;;;;1.88;1.08;;;;;;;21.45;40.65;96653.72;10339500;28;97130;-71
2022/07/09 21:35:33;;;;;;;2.05;1.02;;;;;;;21.23;41.27;96644.34;10339377;28;98003;-71
2022/07/09 21:40:38;;;;;;;2.03;1.10;;;;;;;21.11;41.44;96636.97;10339708;28;96762;-71
2022/07/09 21:45:40;;;;;;;;;;;;;;;20.96;41.21;96633.69;10340045;28;96806;-71
2022/07/09 21:50:43;;;;;;;2.58;1.23;;;;;;;20.69;42.24;96633.66;10339531;28;98723;-71
2022/07/09 21:55:47;;;;;;;1.88;1.08;;;;;;;20.62;41.87;96622.22;10339718;28;96837;-71
2022/07/09 22:00:52;;;;;;;1.52;1.10;;;;;;;20.42;43.28;96631.97;10338870;28;99187;-71
2022/07/09 22:05:55;;;;;;;1.50;1.02;;;;;;;20.26;42.89;96625.19;10338804;28;97590;-71
2022/07/09 22:11:00;;;;;;;1.90;1.23;;;;;;;20.04;44.03;96627.13;10339258;28;96787;-71
2022/07/09 22:16:02;;;;;;;3.08;1.60;;;;;;;19.98;44.77;96621.59;10338537;28;96805;-71
2022/07/09 22:21:06;;;;;;;2.13;1.10;;;;;;;20.08;44.37;96620.41;10338358;28;96832;-71
2022/07/09 22:26:10;;;;;;;2.20;1.00;;;;;;;20.14;44.29;96614.31;10332304;28;96794;-71
2022/07/09 22:31:13;;;;;;;1.20;1.00;;;;;;;20.21;44.13;96614.34;10337467;28;97595;-71
2022/07/09 22:36:16;;;;;;;1.92;1.10;;;;;;;20.05;44.09;96621.63;10336806;28;96850;-71
2022/07/09 22:41:20;;;;;;;1.42;0.95;;;;;;;20.05;44.32;96616.34;10337362;28;96871;-70
2022/07/09 22:46:23;;;;;;;2.55;1.40;;;;;;;19.93;44.79;96608.13;10326468;28;96945;-70
2022/07/09 22:51:27;;;;;;;4.03;1.40;;;;;;;19.85;44.49;96618.88;10337652;28;96822;-70
2022/07/09 22:56:31;;;;;;;2.08;1.17;;;;;;;19.78;46.13;96612.72;10332275;28;99002;-68
2022/07/09 23:01:34;;;;;;;3.55;1.38;;;;;;;19.63;45.76;96611.00;10327065;28;98422;-73
2022/07/09 23:06:37;;;;;;;2.42;1.30;;;;;;;19.40;46.16;96611.28;10323971;28;97942;-74
2022/07/09 23:11:42;;;;;;;3.60;1.52;;;;;;;19.03;47.42;96617.75;10328760;28;99271;-73
2022/07/09 23:16:44;;;;;;;2.42;1.60;;;;;;;18.82;47.40;96606.13;10335126;28;96925;-73
2022/07/09 23:21:47;;;;;;;2.75;1.60;;;;;;;18.70;48.18;96599.72;10342177;28;96900;-73
2022/07/09 23:26:52;;;;;;;2.60;1.35;;;;;;;18.50;48.40;96605.66;10343158;28;97994;-73
2022/07/09 23:31:55;;;;;;;3.72;1.67;;;;;;;18.42;49.56;96595.19;10339828;28;98019;-73
2022/07/09 23:36:57;;;;;;;3.25;1.55;;;;;;;18.29;49.35;96603.81;10340362;28;97910;-73
2022/07/09 23:42:02;;;;;;;1.88;1.40;;;;;;;18.26;48.57;96587.50;10335824;28;97189;-73